Time;durP1;ratioP1;P1;durP2;ratioP2;P2;SDS_P1;SDS_P2;PMS_P1;PMS_P2;Temp;Humidity;BMP_temperature;BMP_pressure;BME280_temperature;BME280_humidity;BME280_pressure;Samples;Min_cycle;Max_cycle;Signal;HPM_P1;HPM_P2
2022/10/14 00:01:38;;;;;;;32.33;17.98;;;12.60;99.90;;;;;;5093434;28;20115;-70
2022/10/14 00:04:03;;;;;;;45.47;19.77;;;12.60;99.90;;;;;;5093854;28;20095;-69
2022/10/14 00:06:32;;;;;;;33.17;17.67;;;12.60;99.90;;;;;;5093370;28;20107;-69
2022/10/14 00:09:05;;;;;;;38.60;18.58;;;12.70;99.90;;;;;;5093883;28;20426;-69
2022/10/14 00:11:32;;;;;;;31.35;17.80;;;12.70;99.90;;;;;;5092954;28;20434;-69
2022/10/14 00:14:06;;;;;;;36.53;19.35;;;12.70;99.90;;;;;;5093678;28;20034;-69
2022/10/14 00:16:35;;;;;;;48.35;21.00;;;12.70;99.90;;;;;;5093270;28;20383;-69
2022/10/14 00:19:02;;;;;;;47.20;20.65;;;12.70;99.90;;;;;;5093844;28;20102;-69
2022/10/14 00:21:28;;;;;;;42.53;19.52;;;12.70;99.90;;;;;;5093008;28;20098;-70
2022/10/14 00:23:55;;;;;;;41.50;21.52;;;12.70;99.90;;;;;;5093491;28;20074;-69
2022/10/14 00:26:24;;;;;;;48.85;21.33;;;12.70;99.90;;;;;;5093091;28;20074;-69
2022/10/14 00:28:50;;;;;;;44.58;20.77;;;12.70;99.90;;;;;;5093439;28;20024;-69
2022/10/14 00:31:17;;;;;;;45.28;21.20;;;12.70;99.90;;;;;;5092192;28;20063;-69
2022/10/14 00:33:43;;;;;;;48.17;21.40;;;12.70;99.90;;;;;;5092613;28;20024;-69
2022/10/14 00:36:12;;;;;;;44.40;19.25;;;12.70;99.90;;;;;;5092980;28;20023;-68
2022/10/14 00:38:39;;;;;;;46.20;20.08;;;12.70;99.90;;;;;;5092762;28;20183;-69
2022/10/14 00:41:05;;;;;;;41.22;20.50;;;12.70;99.90;;;;;;5093480;28;20064;-69
2022/10/14 00:43:49;;;;;;;40.55;21.02;;;12.70;99.90;;;;;;5092689;28;20024;-69
2022/10/14 00:46:15;;;;;;;50.72;21.15;;;12.70;99.90;;;;;;5092912;28;20392;-69
2022/10/14 00:48:40;;;;;;;41.13;21.42;;;12.70;99.90;;;;;;5092740;28;20024;-69
2022/10/14 00:51:06;;;;;;;48.60;22.67;;;12.70;99.90;;;;;;5093100;28;20026;-69
2022/10/14 00:53:33;;;;;;;52.10;23.58;;;12.70;99.90;;;;;;5092744;28;20024;-69
2022/10/14 00:55:58;;;;;;;57.55;24.08;;;12.70;99.90;;;;;;5092797;28;20044;-69
2022/10/14 00:58:24;;;;;;;48.92;22.27;;;12.70;99.90;;;;;;5092870;28;20086;-69
2022/10/14 01:00:50;;;;;;;46.25;22.17;;;12.70;99.90;;;;;;5093012;28;20063;-68
2022/10/14 01:03:22;;;;;;;48.03;22.05;;;12.60;99.90;;;;;;5092888;28;20024;-69
2022/10/14 01:06:00;;;;;;;44.67;22.83;;;12.60;99.90;;;;;;5092922;28;20039;-69
2022/10/14 01:08:47;;;;;;;48.95;22.42;;;12.60;99.90;;;;;;5092345;28;20097;-69
2022/10/14 01:11:20;;;;;;;47.80;22.75;;;12.60;99.90;;;;;;5092450;28;20051;-69
2022/10/14 01:13:55;;;;;;;50.55;21.90;;;12.50;99.90;;;;;;5092663;28;20035;-69
2022/10/14 01:16:56;;;;;;;44.95;21.02;;;12.60;99.90;;;;;;5092849;28;20020;-69
2022/10/14 01:19:50;;;;;;;48.53;21.85;;;12.50;99.90;;;;;;5073593;28;20032;-68
2022/10/14 01:22:31;;;;;;;49.55;22.60;;;12.50;99.90;;;;;;5092859;28;20095;-69
2022/10/14 01:25:07;;;;;;;49.22;23.40;;;12.50;99.90;;;;;;5092571;28;20059;-69
2022/10/14 01:27:56;;;;;;;50.40;22.02;;;12.50;99.90;;;;;;5092414;28;20028;-69
2022/10/14 01:30:24;;;;;;;47.33;22.27;;;12.50;99.90;;;;;;5092765;28;20027;-69
2022/10/14 01:33:10;;;;;;;51.38;21.88;;;12.50;99.90;;;;;;5092040;28;20107;-69
2022/10/14 01:35:50;;;;;;;48.80;20.95;;;12.50;99.90;;;;;;5092282;28;20538;-70
2022/10/14 01:38:30;;;;;;;50.92;22.02;;;12.50;99.90;;;;;;5092663;28;20031;-70
2022/10/14 01:41:03;;;;;;;54.55;22.92;;;12.40;99.90;;;;;;5092659;28;20024;-70
2022/10/14 01:43:31;;;;;;;55.15;23.60;;;12.40;99.90;;;;;;5096300;28;20031;-70
2022/10/14 01:46:00;;;;;;;56.45;25.83;;;12.40;99.90;;;;;;5096443;28;20024;-70
2022/10/14 01:48:35;;;;;;;64.30;24.60;;;12.40;99.90;;;;;;5096519;28;20028;-70
2022/10/14 01:51:05;;;;;;;57.75;23.08;;;12.30;99.90;;;;;;5093792;28;20032;-70
2022/10/14 01:53:39;;;;;;;61.17;24.95;;;12.30;99.90;;;;;;5075522;28;20431;-71
2022/10/14 01:56:06;;;;;;;60.33;23.48;;;12.30;99.90;;;;;;5065936;28;20052;-70
2022/10/14 01:58:33;;;;;;;57.40;24.05;;;12.30;99.90;;;;;;5055483;28;20028;-70
2022/10/14 02:01:02;;;;;;;60.92;24.33;;;12.20;99.90;;;;;;5055970;28;20028;-70
2022/10/14 02:03:41;;;;;;;59.38;25.02;;;12.20;99.90;;;;;;5071903;28;20020;-69
2022/10/14 02:06:30;;;;;;;72.20;25.48;;;12.20;99.90;;;;;;5075916;28;20037;-69
2022/10/14 02:09:09;;;;;;;62.13;23.90;;;12.20;99.90;;;;;;5074852;28;20094;-69
2022/10/14 02:11:44;;;;;;;61.38;23.25;;;12.20;99.90;;;;;;5075376;28;20025;-69
2022/10/14 02:14:16;;;;;;;62.58;23.92;;;12.10;99.90;;;;;;5057787;28;20028;-69
2022/10/14 02:16:58;;;;;;;60.28;24.63;;;12.10;99.90;;;;;;5075303;28;20021;-69
2022/10/14 02:19:48;;;;;;;67.13;26.55;;;12.10;99.90;;;;;;5075519;28;20115;-69
2022/10/14 02:22:20;;;;;;;75.03;25.05;;;12.10;99.90;;;;;;5074993;28;20040;-69
2022/10/14 02:24:52;;;;;;;59.13;24.63;;;12.10;99.90;;;;;;5074871;28;20029;-69
2022/10/14 02:27:21;;;;;;;65.07;25.38;;;12.00;99.90;;;;;;5075504;28;20029;-71
2022/10/14 02:29:47;;;;;;;65.47;27.10;;;12.00;99.90;;;;;;5075024;28;20037;-69
2022/10/14 02:32:17;;;;;;;67.05;25.60;;;12.00;99.90;;;;;;5056935;28;20393;-69
2022/10/14 02:34:47;;;;;;;69.47;24.35;;;11.90;99.90;;;;;;5074937;28;20067;-70
2022/10/14 02:37:14;;;;;;;69.60;28.27;;;11.90;99.90;;;;;;5075216;28;20115;-69
2022/10/14 02:39:44;;;;;;;73.47;25.90;;;12.00;99.90;;;;;;5074892;28;20147;-69
2022/10/14 02:42:10;;;;;;;64.47;25.20;;;11.90;99.90;;;;;;5075426;28;20067;-70
2022/10/14 02:44:36;;;;;;;68.47;25.42;;;12.00;99.90;;;;;;5074928;28;20051;-69
2022/10/14 02:47:02;;;;;;;70.88;25.80;;;12.00;99.90;;;;;;5075084;28;20032;-69
2022/10/14 02:49:28;;;;;;;73.63;24.90;;;12.00;99.90;;;;;;5075332;28;20109;-69
2022/10/14 02:51:53;;;;;;;72.22;25.05;;;12.00;99.90;;;;;;5074621;28;20056;-69
2022/10/14 02:54:19;;;;;;;82.30;28.33;;;12.00;99.90;;;;;;5073518;28;20028;-69
2022/10/14 02:56:45;;;;;;;64.78;24.80;;;12.00;99.90;;;;;;5090288;28;20044;-69
2022/10/14 02:59:10;;;;;;;73.30;26.95;;;12.00;99.90;;;;;;5095055;28;20533;-69
2022/10/14 03:01:36;;;;;;;68.38;25.05;;;12.00;99.90;;;;;;5094685;28;20384;-69
2022/10/14 03:04:02;;;;;;;64.13;23.75;;;12.00;99.90;;;;;;5094849;28;20032;-68
2022/10/14 03:06:27;;;;;;;76.35;26.38;;;12.00;99.90;;;;;;5094999;28;20140;-69
2022/10/14 03:08:53;;;;;;;69.10;26.13;;;12.00;99.90;;;;;;5094595;28;20039;-70
2022/10/14 03:11:18;;;;;;;64.35;24.60;;;12.00;99.90;;;;;;5094816;28;20461;-70
2022/10/14 03:13:44;;;;;;;64.70;23.60;;;12.00;99.90;;;;;;5083514;28;20032;-69
2022/10/14 03:16:10;;;;;;;63.20;24.42;;;12.00;99.90;;;;;;5074826;28;20033;-70
2022/10/14 03:18:35;;;;;;;61.80;25.42;;;12.00;99.90;;;;;;5074257;28;20020;-70
2022/10/14 03:21:01;;;;;;;71.10;25.05;;;12.10;99.90;;;;;;5074567;28;20028;-69
2022/10/14 03:23:27;;;;;;;71.38;25.83;;;12.10;99.90;;;;;;5074317;28;20060;-69
2022/10/14 03:25:52;;;;;;;64.93;24.88;;;12.10;99.90;;;;;;5074067;28;20028;-68
2022/10/14 03:28:18;;;;;;;61.63;23.40;;;12.10;99.90;;;;;;5074579;28;20040;-70
2022/10/14 03:30:43;;;;;;;70.40;25.25;;;12.10;99.90;;;;;;5073874;28;20039;-70
2022/10/14 03:33:09;;;;;;;65.72;24.73;;;12.10;99.90;;;;;;5074206;28;20029;-69
2022/10/14 03:35:34;;;;;;;58.88;23.38;;;12.10;99.90;;;;;;5074537;28;20499;-69
2022/10/14 03:38:02;;;;;;;59.53;24.48;;;12.10;99.90;;;;;;5074067;28;20028;-69
2022/10/14 03:40:29;;;;;;;62.58;23.42;;;12.10;99.90;;;;;;5074476;28;20024;-69
2022/10/14 03:42:58;;;;;;;61.40;24.10;;;12.20;99.90;;;;;;5074073;28;20028;-70
2022/10/14 03:45:24;;;;;;;64.50;23.92;;;12.20;99.90;;;;;;5056099;28;20024;-69
2022/10/14 03:47:49;;;;;;;58.70;23.15;;;12.20;99.90;;;;;;5072588;28;20070;-69
2022/10/14 03:50:15;;;;;;;56.35;24.10;;;12.20;99.90;;;;;;5073651;28;20457;-69
2022/10/14 03:52:41;;;;;;;49.40;23.50;;;12.20;99.90;;;;;;5072666;28;20096;-70
2022/10/14 03:55:08;;;;;;;56.33;24.60;;;12.10;99.90;;;;;;5076563;28;20036;-68
2022/10/14 03:57:34;;;;;;;53.95;23.15;;;12.10;99.90;;;;;;5055964;28;20029;-68
2022/10/14 03:59:59;;;;;;;67.18;24.70;;;12.10;99.90;;;;;;5073386;28;20035;-69
2022/10/14 04:02:25;;;;;;;60.30;23.65;;;12.10;99.90;;;;;;5073937;28;20029;-68
2022/10/14 04:04:51;;;;;;;55.08;23.38;;;12.10;99.90;;;;;;5073281;28;20036;-68
2022/10/14 04:07:16;;;;;;;57.33;22.65;;;12.10;99.90;;;;;;5073321;28;20044;-70
2022/10/14 04:09:42;;;;;;;59.35;23.52;;;12.10;99.90;;;;;;5072942;28;20473;-70
2022/10/14 04:12:08;;;;;;;56.42;22.58;;;12.20;99.90;;;;;;5073522;28;20028;-69
2022/10/14 04:14:34;;;;;;;51.35;22.13;;;12.10;99.90;;;;;;5073257;28;20089;-69
2022/10/14 04:16:59;;;;;;;51.40;22.20;;;12.20;99.90;;;;;;5073057;28;20036;-69
2022/10/14 04:19:25;;;;;;;53.92;21.55;;;12.20;99.90;;;;;;5073417;28;20025;-68
2022/10/14 04:21:51;;;;;;;49.97;22.05;;;12.20;99.90;;;;;;5073012;28;20496;-70
2022/10/14 04:24:16;;;;;;;52.30;22.92;;;12.20;99.90;;;;;;5073217;28;20042;-69
2022/10/14 04:26:42;;;;;;;54.92;21.98;;;12.20;99.90;;;;;;5072706;28;20447;-68
2022/10/14 04:29:08;;;;;;;50.47;20.50;;;12.20;99.90;;;;;;5073040;28;20103;-69
2022/10/14 04:31:33;;;;;;;45.42;21.30;;;12.20;99.90;;;;;;5073120;28;20020;-69
2022/10/14 04:33:59;;;;;;;49.13;22.63;;;12.20;99.90;;;;;;5072916;28;20052;-70
2022/10/14 04:36:24;;;;;;;45.90;19.88;;;12.20;99.90;;;;;;5073168;28;20068;-70
2022/10/14 04:38:50;;;;;;;49.13;21.38;;;12.30;99.90;;;;;;5072666;28;20368;-68
2022/10/14 04:41:16;;;;;;;48.00;21.23;;;12.30;99.90;;;;;;5073010;28;20077;-68
2022/10/14 04:43:41;;;;;;;43.50;18.55;;;12.30;99.90;;;;;;5073145;28;20066;-68
2022/10/14 04:46:07;;;;;;;42.97;19.42;;;12.30;99.90;;;;;;5072929;28;20037;-68
2022/10/14 04:48:33;;;;;;;42.58;18.50;;;12.30;99.90;;;;;;5073670;28;20028;-69
2022/10/14 04:50:59;;;;;;;39.47;17.27;;;12.30;99.90;;;;;;5072648;28;20029;-69
2022/10/14 04:53:24;;;;;;;35.67;17.67;;;12.30;99.90;;;;;;5073294;28;20158;-69
2022/10/14 04:55:50;;;;;;;41.97;18.70;;;12.30;99.90;;;;;;5072396;28;20127;-69
2022/10/14 04:58:16;;;;;;;43.45;19.58;;;12.30;99.90;;;;;;5072749;28;20032;-69
2022/10/14 05:00:41;;;;;;;38.97;18.83;;;12.30;99.90;;;;;;5072541;28;20029;-70
2022/10/14 05:03:07;;;;;;;35.08;17.85;;;12.30;99.90;;;;;;5072016;28;20103;-70
2022/10/14 05:05:33;;;;;;;45.35;17.83;;;12.30;99.90;;;;;;5072685;28;20063;-70
2022/10/14 05:07:59;;;;;;;39.50;18.20;;;12.30;99.90;;;;;;5072367;28;20361;-70
2022/10/14 05:10:25;;;;;;;38.33;17.55;;;12.30;99.90;;;;;;5054710;28;20028;-70
2022/10/14 05:12:50;;;;;;;38.05;17.70;;;12.30;99.90;;;;;;5072149;28;20025;-68
2022/10/14 05:15:17;;;;;;;38.60;17.98;;;12.30;99.90;;;;;;5072342;28;20028;-69
2022/10/14 05:17:43;;;;;;;41.78;18.35;;;12.30;99.90;;;;;;5075300;28;20036;-69
2022/10/14 05:20:10;;;;;;;37.35;17.42;;;12.30;99.90;;;;;;5076808;28;20103;-69
2022/10/14 05:22:36;;;;;;;33.50;16.20;;;12.30;99.90;;;;;;5077019;28;20029;-68
2022/10/14 05:25:02;;;;;;;36.00;16.70;;;12.30;99.90;;;;;;5076513;28;20035;-68
2022/10/14 05:27:28;;;;;;;38.78;17.52;;;12.30;99.90;;;;;;5076930;28;20032;-68
2022/10/14 05:29:54;;;;;;;33.45;16.45;;;12.40;99.90;;;;;;5076843;28;20454;-70
2022/10/14 05:32:19;;;;;;;36.42;17.90;;;12.30;99.90;;;;;;5076643;28;20028;-69
2022/10/14 05:34:45;;;;;;;33.80;17.05;;;12.40;99.90;;;;;;5076835;28;20028;-69
2022/10/14 05:37:11;;;;;;;34.08;16.25;;;12.40;99.90;;;;;;5076806;28;20035;-69
2022/10/14 05:39:36;;;;;;;30.83;16.00;;;12.40;99.90;;;;;;5076631;28;20043;-70
2022/10/14 05:42:02;;;;;;;30.33;16.02;;;12.40;99.90;;;;;;5076218;28;20029;-70
2022/10/14 05:44:28;;;;;;;35.63;15.27;;;12.30;99.90;;;;;;5076641;28;20028;-70
2022/10/14 05:46:53;;;;;;;28.98;15.18;;;12.40;99.90;;;;;;5057670;28;20068;-71
2022/10/14 05:49:19;;;;;;;30.20;14.38;;;12.40;99.90;;;;;;5076099;28;20103;-70
2022/10/14 05:51:45;;;;;;;30.83;15.13;;;12.40;99.90;;;;;;5077332;28;20067;-70
2022/10/14 05:54:11;;;;;;;28.27;13.77;;;12.40;99.90;;;;;;5076009;28;20532;-71
2022/10/14 05:56:36;;;;;;;30.70;12.45;;;12.40;99.90;;;;;;5076335;28;20131;-70
2022/10/14 05:59:02;;;;;;;25.45;13.32;;;12.40;99.90;;;;;;5075284;28;20044;-68
2022/10/14 06:01:28;;;;;;;24.98;13.00;;;12.40;99.90;;;;;;5076501;28;20368;-68
2022/10/14 06:03:54;;;;;;;27.13;14.52;;;12.40;99.90;;;;;;5087338;28;20032;-67
2022/10/14 06:06:19;;;;;;;26.40;13.10;;;12.40;99.90;;;;;;5096870;28;20075;-69
2022/10/14 06:08:45;;;;;;;25.88;13.95;;;12.40;99.90;;;;;;5096346;28;20083;-70
2022/10/14 06:11:11;;;;;;;30.10;14.13;;;12.50;99.90;;;;;;5096241;28;20035;-70
2022/10/14 06:13:37;;;;;;;29.63;12.73;;;12.50;99.90;;;;;;5095904;28;20021;-70
2022/10/14 06:16:05;;;;;;;24.23;13.52;;;12.50;99.90;;;;;;5095757;28;20051;-70
2022/10/14 06:18:31;;;;;;;24.60;13.32;;;12.50;99.90;;;;;;5096318;28;20479;-69
2022/10/14 06:20:56;;;;;;;26.30;14.35;;;12.60;99.90;;;;;;5077628;28;20081;-70
2022/10/14 06:23:22;;;;;;;24.58;13.77;;;12.60;99.90;;;;;;5096349;28;20028;-70
2022/10/14 06:25:47;;;;;;;25.48;13.63;;;12.60;99.90;;;;;;5096054;28;20138;-70
2022/10/14 06:28:13;;;;;;;29.67;14.35;;;12.60;99.90;;;;;;5095524;28;20111;-69
2022/10/14 06:30:39;;;;;;;26.98;15.48;;;12.60;99.90;;;;;;5095914;28;20100;-69
2022/10/14 06:33:04;;;;;;;27.90;15.00;;;12.60;99.90;;;;;;5095161;28;20427;-69
2022/10/14 06:35:30;;;;;;;22.63;13.40;;;12.50;99.90;;;;;;5095427;28;20044;-69
2022/10/14 06:37:57;;;;;;;32.45;13.85;;;12.50;99.90;;;;;;5094613;28;20488;-69
2022/10/14 06:40:23;;;;;;;27.35;15.02;;;12.60;99.90;;;;;;5095333;28;20024;-69
2022/10/14 06:42:48;;;;;;;27.30;13.63;;;12.60;99.90;;;;;;5095448;28;20440;-69
2022/10/14 06:45:14;;;;;;;24.77;14.32;;;12.60;99.90;;;;;;5094719;28;20036;-69
2022/10/14 06:47:40;;;;;;;22.85;12.75;;;12.60;99.90;;;;;;5095429;28;20029;-69
2022/10/14 06:50:06;;;;;;;22.85;12.82;;;12.60;99.90;;;;;;5095022;28;20446;-69
2022/10/14 06:52:32;;;;;;;23.67;12.52;;;12.60;99.90;;;;;;5077631;28;20421;-70
2022/10/14 06:54:57;;;;;;;24.05;13.25;;;12.60;99.90;;;;;;5076624;28;20128;-68
2022/10/14 06:57:23;;;;;;;28.38;14.52;;;12.60;99.90;;;;;;5095300;28;20063;-69
2022/10/14 06:59:49;;;;;;;20.83;11.95;;;12.60;99.90;;;;;;5095095;28;20465;-69
2022/10/14 07:02:14;;;;;;;24.45;14.40;;;12.60;99.90;;;;;;5094350;28;20461;-69
2022/10/14 07:04:40;;;;;;;28.45;15.60;;;12.60;99.90;;;;;;5093213;28;20454;-68
2022/10/14 07:07:07;;;;;;;25.02;13.40;;;12.60;99.90;;;;;;5093652;28;20036;-69
2022/10/14 07:09:33;;;;;;;24.13;14.00;;;12.70;99.90;;;;;;5094824;28;20469;-68
2022/10/14 07:11:58;;;;;;;28.20;14.27;;;12.70;99.90;;;;;;5094285;28;20024;-69
2022/10/14 07:14:24;;;;;;;27.33;13.88;;;12.70;99.90;;;;;;5094423;28;20032;-70
2022/10/14 07:16:50;;;;;;;23.90;14.18;;;12.80;99.90;;;;;;5079217;28;20024;-69
2022/10/14 07:19:16;;;;;;;29.58;13.77;;;12.80;99.90;;;;;;5073270;28;20127;-69
2022/10/14 07:21:41;;;;;;;26.67;13.95;;;12.80;99.90;;;;;;5073481;28;20032;-69
2022/10/14 07:24:08;;;;;;;26.42;13.05;;;12.90;99.90;;;;;;5055173;28;20539;-69
2022/10/14 07:26:34;;;;;;;23.00;13.55;;;12.90;99.90;;;;;;5073754;28;20025;-69
2022/10/14 07:28:59;;;;;;;23.42;13.05;;;12.90;99.90;;;;;;5073834;28;20051;-69
2022/10/14 07:31:25;;;;;;;26.70;14.05;;;13.00;99.90;;;;;;5074033;28;20035;-69
2022/10/14 07:33:51;;;;;;;29.55;13.73;;;13.00;99.90;;;;;;5073998;28;20437;-69
2022/10/14 07:36:18;;;;;;;25.30;14.25;;;13.00;99.90;;;;;;5073338;28;20377;-68
2022/10/14 07:38:44;;;;;;;23.02;12.95;;;13.00;99.90;;;;;;5073479;28;20029;-68
2022/10/14 07:41:16;;;;;;;24.50;13.68;;;13.10;99.90;;;;;;5073157;28;20050;-68
2022/10/14 07:43:48;;;;;;;24.27;13.68;;;13.10;99.90;;;;;;5073298;28;20469;-70
2022/10/14 07:46:16;;;;;;;25.67;14.38;;;13.10;99.90;;;;;;5072902;28;20032;-68
2022/10/14 07:48:42;;;;;;;24.40;13.73;;;13.10;99.90;;;;;;5073791;28;20054;-69
2022/10/14 07:51:08;;;;;;;23.95;13.05;;;13.10;99.90;;;;;;5073138;28;20103;-69
2022/10/14 07:53:35;;;;;;;26.45;13.68;;;13.20;99.90;;;;;;5073627;28;20032;-68
2022/10/14 07:56:01;;;;;;;24.38;14.05;;;13.20;99.90;;;;;;5072757;28;20174;-69
2022/10/14 07:58:29;;;;;;;26.80;14.57;;;13.30;99.90;;;;;;5073053;28;20115;-69
2022/10/14 08:00:56;;;;;;;23.90;13.52;;;13.30;99.90;;;;;;5073131;28;20473;-68
2022/10/14 08:03:23;;;;;;;27.77;14.18;;;13.30;99.90;;;;;;5072397;28;20056;-70
2022/10/14 08:05:49;;;;;;;25.60;14.18;;;13.30;99.90;;;;;;5073316;28;20040;-69
2022/10/14 08:08:16;;;;;;;28.10;15.18;;;13.40;99.90;;;;;;5072826;28;20131;-69
2022/10/14 08:10:42;;;;;;;27.25;14.85;;;13.40;99.90;;;;;;5076680;28;20020;-69
2022/10/14 08:13:08;;;;;;;28.48;15.35;;;13.40;99.90;;;;;;5093167;28;20028;-69
2022/10/14 08:15:39;;;;;;;29.70;16.02;;;13.40;99.90;;;;;;5093557;28;20469;-69
2022/10/14 08:18:06;;;;;;;26.48;14.80;;;13.40;99.90;;;;;;5092999;28;20055;-69
2022/10/14 08:20:32;;;;;;;28.70;15.85;;;13.40;99.90;;;;;;5093578;28;20028;-69
2022/10/14 08:22:59;;;;;;;28.20;15.50;;;13.50;99.90;;;;;;5093414;28;20032;-69
2022/10/14 08:25:24;;;;;;;28.80;16.65;;;13.50;99.90;;;;;;5092849;28;20476;-69
2022/10/14 08:27:51;;;;;;;29.67;14.35;;;13.60;99.90;;;;;;5093262;28;20078;-69
2022/10/14 08:30:17;;;;;;;28.80;15.07;;;13.60;99.90;;;;;;5092727;28;20376;-69
2022/10/14 08:32:42;;;;;;;27.77;15.05;;;13.70;99.90;;;;;;5093066;28;20024;-69
2022/10/14 08:35:10;;;;;;;32.90;15.73;;;13.70;99.90;;;;;;5092422;28;20024;-69
2022/10/14 08:37:36;;;;;;;26.40;14.93;;;13.70;99.90;;;;;;5093026;28;20150;-69
2022/10/14 08:40:02;;;;;;;25.50;16.70;;;13.70;99.90;;;;;;5092486;28;20063;-69
2022/10/14 08:42:36;;;;;;;32.33;15.13;;;13.70;99.90;;;;;;5074630;28;20529;-69
2022/10/14 08:45:08;;;;;;;30.35;16.95;;;13.70;99.90;;;;;;5092605;28;20119;-70
2022/10/14 08:47:38;;;;;;;23.83;15.43;;;13.80;99.90;;;;;;5092647;28;20020;-70
2022/10/14 08:50:12;;;;;;;28.98;16.00;;;13.90;99.90;;;;;;5074134;28;20488;-70
2022/10/14 08:52:49;;;;;;;25.60;14.70;;;14.00;99.90;;;;;;5092431;28;20480;-69
2022/10/14 08:55:22;;;;;;;27.90;15.15;;;14.20;99.90;;;;;;5092008;28;20048;-69
2022/10/14 08:57:52;;;;;;;25.42;14.07;;;14.40;99.90;;;;;;5092693;28;20016;-69
2022/10/14 09:00:19;;;;;;;25.63;15.60;;;14.50;99.90;;;;;;5092164;28;20354;-69
2022/10/14 09:02:48;;;;;;;24.77;14.82;;;14.60;99.90;;;;;;5092684;28;20138;-69
2022/10/14 09:05:20;;;;;;;27.58;14.45;;;14.80;99.90;;;;;;5092260;28;20453;-70
2022/10/14 09:07:48;;;;;;;25.02;14.65;;;15.00;99.90;;;;;;5092478;28;20058;-69
2022/10/14 09:10:36;;;;;;;26.10;15.27;;;15.20;99.90;;;;;;5092269;28;20032;-69
2022/10/14 09:13:13;;;;;;;26.20;13.88;;;15.30;99.90;;;;;;5092606;28;20112;-68
2022/10/14 09:15:42;;;;;;;23.75;14.32;;;15.40;99.90;;;;;;5092239;28;20043;-69
2022/10/14 09:18:26;;;;;;;31.65;15.15;;;15.40;99.90;;;;;;5092427;28;20020;-68
2022/10/14 09:20:54;;;;;;;28.13;16.48;;;15.50;99.90;;;;;;5092402;28;20118;-68
2022/10/14 09:23:22;;;;;;;28.15;16.25;;;15.50;99.90;;;;;;5092021;28;20035;-69
2022/10/14 09:25:58;;;;;;;25.58;15.50;;;15.50;99.90;;;;;;5092435;28;20042;-69
2022/10/14 09:28:33;;;;;;;25.75;14.95;;;15.60;99.90;;;;;;5092269;28;20085;-69
2022/10/14 09:30:58;;;;;;;21.73;13.85;;;15.60;99.90;;;;;;5092639;28;20024;-69
2022/10/14 09:33:27;;;;;;;26.20;14.45;;;15.50;99.90;;;;;;5092093;28;20419;-69
2022/10/14 09:35:53;;;;;;;24.15;14.68;;;15.60;99.90;;;;;;5092050;28;20432;-68
2022/10/14 09:38:19;;;;;;;28.00;14.50;;;15.60;99.90;;;;;;5091971;28;20048;-69
2022/10/14 09:40:52;;;;;;;29.25;14.38;;;15.60;99.90;;;;;;5091991;28;20430;-68
2022/10/14 09:43:20;;;;;;;23.70;13.38;;;15.60;99.90;;;;;;5091951;28;20460;-69
2022/10/14 09:46:06;;;;;;;24.08;13.73;;;15.60;99.90;;;;;;5092270;28;20044;-69
2022/10/14 09:48:41;;;;;;;23.50;13.35;;;15.60;99.90;;;;;;5092348;28;20103;-69
2022/10/14 09:51:17;;;;;;;22.63;12.88;;;15.60;99.90;;;;;;5091780;28;20063;-69
2022/10/14 09:53:52;;;;;;;17.60;10.60;;;15.70;99.90;;;;;;5092219;28;20085;-69
2022/10/14 09:56:35;;;;;;;23.33;12.52;;;15.70;99.90;;;;;;5091323;28;20048;-69
2022/10/14 09:59:03;;;;;;;18.75;11.95;;;15.70;99.90;;;;;;5071856;28;20052;-69
2022/10/14 10:01:55;;;;;;;18.30;11.40;;;15.80;99.90;;;;;;5071693;28;20032;-69
2022/10/14 10:04:43;;;;;;;19.38;11.95;;;15.90;99.90;;;;;;5074120;28;20128;-69
2022/10/14 10:07:33;;;;;;;22.45;12.20;;;16.00;99.90;;;;;;5075189;28;20021;-69
2022/10/14 10:10:04;;;;;;;23.13;12.95;;;16.00;99.90;;;;;;5075721;28;20024;-70
2022/10/14 10:12:31;;;;;;;;;;;16.10;99.90;;;;;;5075646;28;20024;-69
2022/10/14 10:14:59;;;;;;;20.70;11.55;;;16.20;99.90;;;;;;5075468;28;19942;-69
2022/10/14 10:17:26;;;;;;;19.25;11.75;;;16.30;99.90;;;;;;5074821;28;20562;-69
2022/10/14 10:20:27;;;;;;;21.13;11.40;;;16.30;99.90;;;;;;5073405;28;20060;-69
2022/10/14 10:22:54;;;;;;;18.80;11.00;;;16.30;99.90;;;;;;5050766;28;20037;-68
2022/10/14 10:25:25;;;;;;;17.25;10.90;;;16.20;99.90;;;;;;5046426;28;20043;-68
2022/10/14 10:27:51;;;;;;;18.65;11.13;;;16.20;99.90;;;;;;5075046;28;20025;-68
2022/10/14 10:30:17;;;;;;;17.27;10.82;;;16.10;99.90;;;;;;5074553;28;20442;-68
2022/10/14 10:33:04;;;;;;;17.80;10.27;;;16.00;99.90;;;;;;5075363;28;20029;-70
2022/10/14 10:35:52;;;;;;;21.75;11.50;;;16.10;99.90;;;;;;5074480;28;20052;-69
2022/10/14 10:38:44;;;;;;;19.45;10.63;;;16.10;99.90;;;;;;5074584;28;20025;-68
2022/10/14 10:41:25;;;;;;;18.17;10.02;;;16.10;99.90;;;;;;5066432;28;20040;-68
2022/10/14 10:43:53;;;;;;;21.60;10.65;;;16.10;99.90;;;;;;5074811;28;20469;-69
2022/10/14 10:46:59;;;;;;;20.42;11.15;;;16.20;99.90;;;;;;5074531;28;20116;-68
2022/10/14 10:49:37;;;;;;;18.15;10.43;;;16.20;99.90;;;;;;5074528;28;20024;-69
2022/10/14 10:52:11;;;;;;;19.35;10.10;;;16.30;99.90;;;;;;5074770;28;20074;-69
2022/10/14 10:54:59;;;;;;;17.23;9.88;;;16.30;99.90;;;;;;5074851;28;20031;-69
2022/10/14 10:57:34;;;;;;;16.35;9.88;;;16.30;99.90;;;;;;5074078;28;20408;-69
2022/10/14 11:00:09;;;;;;;22.80;9.38;;;16.30;99.90;;;;;;5074799;28;20339;-68
2022/10/14 11:02:57;;;;;;;14.88;9.32;;;16.30;99.90;;;;;;5074186;28;20134;-69
2022/10/14 11:05:31;;;;;;;18.65;9.55;;;16.30;99.90;;;;;;5073840;28;20037;-69
2022/10/14 11:13:41;;;;;;;14.97;9.60;;;16.60;99.90;;;;;;5073818;28;20097;-69
2022/10/14 11:16:28;;;;;;;18.27;8.80;;;16.70;99.90;;;;;;5074181;28;20032;-68
2022/10/14 11:18:57;;;;;;;14.38;8.35;;;16.80;99.90;;;;;;5074329;28;20468;-68
2022/10/14 11:21:47;;;;;;;15.48;8.73;;;16.80;99.90;;;;;;5073911;28;20021;-68
2022/10/14 11:24:27;;;;;;;13.10;7.57;;;17.00;99.90;;;;;;5074282;28;20044;-69
2022/10/14 11:27:04;;;;;;;14.35;7.45;;;17.10;99.90;;;;;;5074142;28;20261;-69
2022/10/14 11:30:02;;;;;;;11.05;6.20;;;17.30;99.90;;;;;;5073846;28;20020;-68
2022/10/14 11:32:36;;;;;;;8.07;6.00;;;17.50;99.90;;;;;;5073513;28;20047;-69
2022/10/14 11:35:18;;;;;;;7.03;4.97;;;17.70;99.90;;;;;;5074098;28;20082;-69
2022/10/14 11:38:08;;;;;;;8.85;5.70;;;17.90;99.90;;;;;;5074235;28;20028;-69
2022/10/14 11:40:52;;;;;;;10.33;5.30;;;18.00;99.90;;;;;;5073536;28;20024;-69
2022/10/14 11:43:53;;;;;;;7.18;4.63;;;18.10;99.90;;;;;;5073584;28;20127;-70
2022/10/14 11:46:21;;;;;;;8.60;5.60;;;18.20;99.40;;;;;;5055225;28;20044;-69
2022/10/14 11:48:51;;;;;;;10.40;5.65;;;18.20;99.50;;;;;;5073788;28;20064;-69
2022/10/14 11:51:26;;;;;;;9.43;5.55;;;18.30;98.10;;;;;;5073003;28;20026;-70
2022/10/14 11:54:17;;;;;;;10.15;5.85;;;18.20;96.80;;;;;;5073473;28;20028;-68
2022/10/14 11:56:51;;;;;;;8.70;5.45;;;18.30;97.10;;;;;;5073466;28;20098;-69
2022/10/14 11:59:29;;;;;;;8.63;4.70;;;18.20;96.40;;;;;;5075767;28;20029;-69
2022/10/14 12:02:07;;;;;;;8.30;4.38;;;18.20;97.20;;;;;;5073731;28;20031;-69
2022/10/14 12:04:37;;;;;;;8.45;4.45;;;18.20;97.60;;;;;;5073478;28;20068;-69
2022/10/14 12:07:21;;;;;;;6.38;4.30;;;18.20;96.90;;;;;;5074098;28;20020;-69
2022/10/14 12:09:59;;;;;;;8.23;4.80;;;18.20;97.30;;;;;;5073454;28;20025;-69
2022/10/14 12:12:27;;;;;;;9.63;4.65;;;18.20;97.00;;;;;;5055347;28;20499;-69
2022/10/14 12:15:04;;;;;;;8.05;4.90;;;18.20;95.80;;;;;;5073652;28;20035;-68
2022/10/14 12:17:46;;;;;;;7.35;4.57;;;18.10;95.60;;;;;;5090776;28;20028;-68
2022/10/14 12:20:33;;;;;;;7.75;4.20;;;18.10;96.40;;;;;;5093930;28;20028;-69
2022/10/14 12:23:00;;;;;;;7.40;3.97;;;18.00;95.60;;;;;;5093714;28;20056;-68
2022/10/14 12:25:35;;;;;;;8.23;4.28;;;18.00;96.20;;;;;;5092541;28;20161;-68
2022/10/14 12:28:01;;;;;;;7.30;3.72;;;18.00;95.90;;;;;;5093560;28;20024;-68
2022/10/14 12:30:35;;;;;;;6.97;3.78;;;18.00;96.50;;;;;;5091904;28;20485;-69
2022/10/14 12:33:06;;;;;;;6.97;3.92;;;18.00;95.90;;;;;;5093198;28;20387;-69
2022/10/14 12:35:49;;;;;;;4.63;2.78;;;18.00;95.70;;;;;;5092984;28;20056;-68
2022/10/14 12:38:15;;;;;;;7.75;4.28;;;18.10;95.60;;;;;;5093340;28;20131;-68
2022/10/14 12:40:41;;;;;;;5.13;3.42;;;18.10;95.60;;;;;;5092588;28;20091;-70
2022/10/14 12:43:26;;;;;;;9.55;4.13;;;18.10;95.40;;;;;;5093254;28;20103;-68
2022/10/14 12:46:14;;;;;;;9.50;3.70;;;18.00;95.00;;;;;;5093135;28;20381;-68
2022/10/14 12:48:50;;;;;;;11.43;3.22;;;18.10;95.20;;;;;;5092936;28;20031;-69
2022/10/14 12:51:21;;;;;;;6.22;3.38;;;18.00;95.20;;;;;;5093493;28;20028;-69
2022/10/14 12:54:11;;;;;;;4.53;3.40;;;18.00;95.50;;;;;;5093197;28;20028;-69